createdAt,value
2017-12-04T00:01:38.305Z,5.10
2017-12-04T00:04:06.344Z,5.10
2017-12-04T00:06:34.389Z,5.00
2017-12-04T00:09:02.401Z,5.00
2017-12-04T00:11:30.456Z,5.00
2017-12-04T00:13:58.493Z,4.90
2017-12-04T00:16:26.523Z,4.90
2017-12-04T00:18:54.545Z,4.90
2017-12-04T00:21:22.645Z,4.90
2017-12-04T00:23:50.654Z,4.80
2017-12-04T00:26:18.666Z,4.90
2017-12-04T00:28:46.666Z,4.90
2017-12-04T00:31:14.696Z,4.90
2017-12-04T00:33:42.706Z,4.80
2017-12-04T00:36:10.730Z,4.90
2017-12-04T00:38:38.987Z,4.90
2017-12-04T00:41:07.757Z,4.90
2017-12-04T00:43:35.818Z,4.90
2017-12-04T00:46:03.882Z,4.90
2017-12-04T00:48:31.884Z,4.80
2017-12-04T00:51:00.663Z,4.90
2017-12-04T00:53:28.706Z,4.90
2017-12-04T00:55:56.704Z,4.90
2017-12-04T00:58:24.775Z,4.90
2017-12-04T01:00:52.793Z,4.90
2017-12-04T01:03:20.818Z,4.80
2017-12-04T01:05:48.893Z,4.90
2017-12-04T01:08:17.013Z,4.90
2017-12-04T01:10:45.081Z,4.80
2017-12-04T01:13:13.083Z,4.80
2017-12-04T01:15:41.075Z,4.80
2017-12-04T01:18:09.095Z,4.70
2017-12-04T01:20:37.105Z,4.70
2017-12-04T01:23:05.154Z,4.70
2017-12-04T01:25:33.129Z,4.70
2017-12-04T01:28:01.140Z,4.70
2017-12-04T01:30:29.936Z,4.70
2017-12-04T01:32:58.681Z,4.70
2017-12-04T01:35:26.698Z,4.60
2017-12-04T01:37:54.697Z,4.70
2017-12-04T01:40:22.712Z,4.70
2017-12-04T01:42:50.696Z,4.70
2017-12-04T01:45:19.505Z,4.70
2017-12-04T01:47:47.568Z,4.70
2017-12-04T01:50:15.559Z,4.70
2017-12-04T01:52:43.569Z,4.70
2017-12-04T01:55:11.530Z,4.70
2017-12-04T01:57:39.628Z,4.60
2017-12-04T02:00:07.677Z,4.70
2017-12-04T02:02:35.749Z,4.60
2017-12-04T02:05:03.851Z,4.70
2017-12-04T02:07:32.712Z,4.70
2017-12-04T02:10:00.744Z,4.70
2017-12-04T02:12:28.806Z,4.70
2017-12-04T02:14:56.834Z,4.70
2017-12-04T02:17:24.861Z,4.80
2017-12-04T02:19:52.885Z,4.80
2017-12-04T02:22:20.970Z,4.70
2017-12-04T02:24:49.831Z,4.70
2017-12-04T02:27:17.868Z,4.70
2017-12-04T02:29:45.957Z,4.70
2017-12-04T02:32:14.027Z,4.70
2017-12-04T02:34:42.056Z,4.70
2017-12-04T02:37:10.070Z,4.60
2017-12-04T02:39:38.092Z,4.60
2017-12-04T02:42:06.934Z,4.70
2017-12-04T02:44:35.041Z,4.60
2017-12-04T02:47:03.917Z,4.70
2017-12-04T02:49:32.035Z,4.60
2017-12-04T02:52:00.130Z,4.70
2017-12-04T02:54:28.241Z,4.60
2017-12-04T02:56:56.395Z,4.60
2017-12-04T02:59:24.501Z,4.60
2017-12-04T03:01:53.310Z,4.50
2017-12-04T03:04:21.324Z,4.50
2017-12-04T03:06:49.393Z,4.50
2017-12-04T03:09:17.427Z,4.50
2017-12-04T03:11:45.416Z,4.50
2017-12-04T03:14:13.433Z,4.50
2017-12-04T03:16:41.552Z,4.50
2017-12-04T03:19:09.572Z,4.50
2017-12-04T03:21:37.669Z,4.50
2017-12-04T03:24:06.509Z,4.50
2017-12-04T03:26:34.436Z,4.50
2017-12-04T03:29:03.296Z,4.60
2017-12-04T03:31:31.369Z,4.60
2017-12-04T03:33:59.441Z,4.60
2017-12-04T03:36:28.226Z,4.60
2017-12-04T03:38:56.350Z,4.60
2017-12-04T03:41:24.484Z,4.60
2017-12-04T03:43:53.353Z,4.70
2017-12-04T03:46:21.520Z,4.70
2017-12-04T03:48:49.536Z,4.70
2017-12-04T03:51:17.609Z,4.70
2017-12-04T03:53:45.608Z,4.70
2017-12-04T03:56:13.593Z,4.70
2017-12-04T03:58:41.620Z,4.60
2017-12-04T04:01:09.598Z,4.60
2017-12-04T04:03:37.648Z,4.60
2017-12-04T04:06:06.464Z,4.50
2017-12-04T04:08:34.450Z,4.50
2017-12-04T04:11:02.445Z,4.50
2017-12-04T04:13:30.494Z,4.50
2017-12-04T04:15:58.509Z,4.50
2017-12-04T04:18:27.261Z,4.50
2017-12-04T04:20:55.302Z,4.40
2017-12-04T04:23:23.332Z,4.40
2017-12-04T04:25:51.393Z,4.50
2017-12-04T04:28:19.443Z,4.50
2017-12-04T04:30:47.520Z,4.50
2017-12-04T04:33:15.506Z,4.50
2017-12-04T04:35:43.516Z,4.50
2017-12-04T04:38:11.512Z,4.40
2017-12-04T04:40:39.603Z,4.40
2017-12-04T04:43:07.605Z,4.40
2017-12-04T04:45:36.416Z,4.40
2017-12-04T04:48:04.506Z,4.40
2017-12-04T04:50:32.602Z,4.40
2017-12-04T04:53:00.750Z,4.40
2017-12-04T04:55:28.844Z,4.40
2017-12-04T04:57:56.843Z,4.40
2017-12-04T05:00:24.882Z,4.40
2017-12-04T05:02:52.941Z,4.40
2017-12-04T05:05:21.001Z,4.40
2017-12-04T05:07:49.046Z,4.40
2017-12-04T05:10:17.854Z,4.40
2017-12-04T05:12:45.933Z,4.40
2017-12-04T05:15:13.973Z,4.40
2017-12-04T05:17:42.785Z,4.40
2017-12-04T05:20:10.842Z,4.40
2017-12-04T05:22:39.679Z,4.50
2017-12-04T05:25:07.693Z,4.50
2017-12-04T05:27:36.496Z,4.50
2017-12-04T05:30:05.291Z,4.40
2017-12-04T05:32:33.286Z,4.40
2017-12-04T05:35:01.369Z,4.40
2017-12-04T05:37:29.373Z,4.40
2017-12-04T05:39:57.391Z,4.40
2017-12-04T05:42:25.466Z,4.50
2017-12-04T05:44:53.522Z,4.40
2017-12-04T05:47:21.611Z,4.40
2017-12-04T05:49:49.637Z,4.40
2017-12-04T05:52:18.482Z,4.40
2017-12-04T05:54:46.556Z,4.40
2017-12-04T05:57:14.568Z,4.30
2017-12-04T05:59:43.336Z,4.20
2017-12-04T06:02:11.353Z,4.20
2017-12-04T06:04:39.349Z,4.20
2017-12-04T06:07:07.345Z,4.30
2017-12-04T06:09:35.360Z,4.30
2017-12-04T06:12:03.365Z,4.30
2017-12-04T06:14:31.371Z,4.30
2017-12-04T06:17:00.143Z,4.20
2017-12-04T06:19:28.228Z,4.20
2017-12-04T06:21:56.249Z,4.20
2017-12-04T06:24:24.287Z,4.20
2017-12-04T06:26:53.048Z,4.30
2017-12-04T06:29:21.009Z,4.30
2017-12-04T06:31:49.010Z,4.30
2017-12-04T06:34:17.762Z,4.20
2017-12-04T06:36:45.771Z,4.20
2017-12-04T06:39:14.588Z,4.20
2017-12-04T06:41:42.582Z,4.20
2017-12-04T06:44:10.597Z,4.20
2017-12-04T06:46:39.358Z,4.20
2017-12-04T06:49:07.433Z,4.20
2017-12-04T06:51:35.473Z,4.20
2017-12-04T06:54:03.458Z,4.20
2017-12-04T06:56:32.300Z,4.20
2017-12-04T06:59:01.085Z,4.20
2017-12-04T07:01:29.829Z,4.20
2017-12-04T07:03:57.834Z,4.10
2017-12-04T07:06:26.614Z,4.20
2017-12-04T07:08:54.626Z,4.20
2017-12-04T07:11:22.644Z,4.20
2017-12-04T07:13:50.677Z,4.20
2017-12-04T07:16:18.674Z,4.20
2017-12-04T07:18:46.695Z,4.20
2017-12-04T07:21:14.709Z,4.20
2017-12-04T07:23:42.713Z,4.30
2017-12-04T07:26:11.474Z,4.40
2017-12-04T07:28:39.477Z,4.40
2017-12-04T07:31:08.261Z,4.60
2017-12-04T07:33:37.037Z,4.70
2017-12-04T07:36:05.087Z,4.70
2017-12-04T07:38:33.113Z,4.80
2017-12-04T07:41:01.118Z,5.00
2017-12-04T07:43:29.138Z,5.10
2017-12-04T07:45:57.924Z,5.40
2017-12-04T07:48:26.692Z,5.60
2017-12-04T07:50:54.697Z,5.60
2017-12-04T07:53:22.706Z,5.90
2017-12-04T07:55:50.769Z,6.10
2017-12-04T07:58:18.852Z,6.40
2017-12-04T08:00:46.890Z,6.60
2017-12-04T08:03:14.994Z,6.80
2017-12-04T08:05:43.008Z,7.00
2017-12-04T08:08:11.863Z,7.40
2017-12-04T08:10:39.905Z,7.40
2017-12-04T08:13:07.911Z,7.60
2017-12-04T08:15:35.945Z,7.80
2017-12-04T08:18:03.946Z,7.90
2017-12-04T08:20:32.013Z,8.10
2017-12-04T08:23:00.093Z,8.20
2017-12-04T08:25:28.184Z,8.40
2017-12-04T08:27:56.166Z,8.50
2017-12-04T08:30:25.010Z,8.70
2017-12-04T08:32:53.085Z,8.70
2017-12-04T08:35:21.176Z,8.80
2017-12-04T08:37:49.198Z,8.90
2017-12-04T08:40:17.242Z,9.00
2017-12-04T08:42:46.014Z,9.20
2017-12-04T08:45:14.813Z,9.30
2017-12-04T08:47:43.578Z,9.40
2017-12-04T08:50:11.586Z,9.40
2017-12-04T08:52:39.612Z,9.50
2017-12-04T08:55:07.871Z,9.50
2017-12-04T08:57:35.913Z,9.60
2017-12-04T09:00:03.967Z,9.60
2017-12-04T09:02:32.776Z,9.60
2017-12-04T09:05:00.820Z,9.70
2017-12-04T09:07:29.628Z,9.70
2017-12-04T09:09:57.952Z,9.60
2017-12-04T09:12:25.970Z,9.70
2017-12-04T09:14:54.018Z,9.70
2017-12-04T09:17:22.868Z,9.80
2017-12-04T09:19:50.928Z,9.80
2017-12-04T09:22:18.973Z,9.90
2017-12-04T09:24:47.967Z,10.10
2017-12-04T09:27:16.795Z,10.20
2017-12-04T09:29:44.806Z,10.20
2017-12-04T09:32:12.832Z,10.30
2017-12-04T09:34:40.834Z,10.50
2017-12-04T09:37:08.939Z,10.60
2017-12-04T09:39:37.007Z,10.70
2017-12-04T09:42:05.822Z,10.90
2017-12-04T09:44:33.902Z,10.90
2017-12-04T09:47:01.970Z,11.00
2017-12-04T09:49:29.999Z,11.00
2017-12-04T09:51:58.826Z,11.10
2017-12-04T09:54:26.973Z,11.10
2017-12-04T09:56:55.745Z,11.30
2017-12-04T09:59:23.770Z,11.30
2017-12-04T10:01:51.888Z,11.50
2017-12-04T10:04:19.945Z,11.60
2017-12-04T10:06:48.014Z,11.70
2017-12-04T10:09:16.048Z,11.80
2017-12-04T10:11:44.092Z,12.00
2017-12-04T10:14:12.162Z,12.10
2017-12-04T10:16:41.073Z,12.30
2017-12-04T10:19:09.161Z,12.30
2017-12-04T10:21:37.182Z,12.40
2017-12-04T10:24:05.978Z,12.70
2017-12-04T10:26:34.788Z,12.90
2017-12-04T10:29:02.861Z,12.90
2017-12-04T10:31:30.846Z,13.10
2017-12-04T10:33:58.880Z,13.20
2017-12-04T10:36:27.678Z,13.50
2017-12-04T10:38:56.481Z,13.60
2017-12-04T10:41:24.509Z,13.50
2017-12-04T10:43:52.590Z,13.70
2017-12-04T10:46:21.389Z,14.00
2017-12-04T10:48:50.231Z,14.10
2017-12-04T10:51:18.297Z,14.10
2017-12-04T10:53:46.410Z,14.20
2017-12-04T10:56:14.547Z,14.20
2017-12-04T10:58:42.617Z,14.30
2017-12-04T11:01:10.773Z,14.30
2017-12-04T11:03:38.847Z,14.30
2017-12-04T11:06:06.909Z,14.40
2017-12-04T11:08:34.932Z,14.40
2017-12-04T11:11:03.014Z,14.40
2017-12-04T11:13:31.024Z,14.40
2017-12-04T11:15:59.051Z,14.40
2017-12-04T11:18:27.146Z,14.40
2017-12-04T11:20:56.022Z,14.40
2017-12-04T11:23:24.092Z,14.40
2017-12-04T11:25:52.409Z,14.50
2017-12-04T11:28:20.453Z,14.50
2017-12-04T11:30:49.310Z,14.50
2017-12-04T11:33:17.383Z,14.50
2017-12-04T11:35:45.474Z,14.50
2017-12-04T11:38:14.291Z,14.60
2017-12-04T11:40:42.336Z,14.60
2017-12-04T11:43:10.373Z,14.60
2017-12-04T11:45:38.526Z,14.70
2017-12-04T11:48:06.577Z,14.60
2017-12-04T11:50:34.592Z,14.60
2017-12-04T11:53:02.675Z,14.70
2017-12-04T11:55:30.707Z,14.70
2017-12-04T11:57:58.760Z,14.70
2017-12-04T12:00:27.625Z,14.70
2017-12-04T12:02:55.669Z,14.60
2017-12-04T12:05:23.687Z,14.70
2017-12-04T12:07:52.511Z,14.60
2017-12-04T12:10:20.514Z,14.60
2017-12-04T12:12:48.564Z,14.60
2017-12-04T12:15:16.634Z,14.50
2017-12-04T12:17:44.677Z,14.40
2017-12-04T12:20:12.705Z,14.40
2017-12-04T12:22:40.729Z,14.30
2017-12-04T12:25:08.741Z,14.20
2017-12-04T12:27:36.773Z,14.20
2017-12-04T12:30:04.802Z,14.20
2017-12-04T12:32:33.596Z,14.10
2017-12-04T12:35:02.332Z,14.10
2017-12-04T12:37:30.318Z,14.00
2017-12-04T12:39:58.338Z,14.00
2017-12-04T12:42:26.359Z,13.90
2017-12-04T12:44:54.358Z,13.90
2017-12-04T12:47:23.169Z,13.80
2017-12-04T12:49:51.193Z,13.80
2017-12-04T12:52:19.234Z,13.70
2017-12-04T12:54:47.248Z,13.60
2017-12-04T12:57:15.254Z,13.60
2017-12-04T12:59:43.266Z,13.60
2017-12-04T13:02:11.285Z,13.50
2017-12-04T13:04:39.306Z,13.50
2017-12-04T13:07:07.317Z,13.40
2017-12-04T13:09:36.105Z,13.30
2017-12-04T13:12:04.886Z,13.30
2017-12-04T13:14:33.711Z,13.30
2017-12-04T13:17:01.742Z,13.20
2017-12-04T13:19:29.752Z,13.20
2017-12-04T13:21:57.761Z,13.20
2017-12-04T13:24:25.765Z,13.10
2017-12-04T13:26:54.539Z,13.10
2017-12-04T13:29:22.540Z,13.10
2017-12-04T13:31:51.516Z,13.10
2017-12-04T13:37:23.190Z,13.00
2017-12-04T13:39:52.068Z,13.00
2017-12-04T13:42:20.144Z,12.90
2017-12-04T13:44:48.249Z,12.90
2017-12-04T13:47:16.256Z,12.80
2017-12-04T13:49:44.246Z,12.80
2017-12-04T13:52:12.223Z,12.80
2017-12-04T13:54:40.248Z,12.80
2017-12-04T13:57:08.270Z,12.70
2017-12-04T13:59:37.027Z,12.70
2017-12-04T14:02:05.055Z,12.70
2017-12-04T14:04:33.105Z,12.70
2017-12-04T14:07:01.883Z,12.70
2017-12-04T14:09:29.891Z,12.60
2017-12-04T14:11:57.898Z,12.60
2017-12-04T14:14:25.886Z,12.60
2017-12-04T14:16:53.879Z,12.50
2017-12-04T14:19:22.608Z,12.50
2017-12-04T14:21:50.620Z,12.50
2017-12-04T14:24:18.637Z,12.50
2017-12-04T14:26:46.666Z,12.50
2017-12-04T14:29:15.413Z,12.50
2017-12-04T14:31:43.481Z,12.50
2017-12-04T14:34:11.484Z,12.40
2017-12-04T14:36:39.451Z,12.40
2017-12-04T14:39:07.465Z,12.40
2017-12-04T14:41:35.471Z,12.40
2017-12-04T14:44:03.510Z,12.30
2017-12-04T14:46:31.539Z,12.30
2017-12-04T14:48:59.596Z,12.30
2017-12-04T14:51:27.727Z,12.20
2017-12-04T14:53:55.810Z,12.20
2017-12-04T14:56:23.902Z,12.10
2017-12-04T14:58:51.998Z,12.10
2017-12-04T15:01:20.100Z,12.00
2017-12-04T15:03:48.147Z,12.00
2017-12-04T15:06:16.207Z,12.00
2017-12-04T15:08:44.319Z,11.90
2017-12-04T15:11:12.402Z,11.90
2017-12-04T15:13:40.550Z,11.90
2017-12-04T15:16:09.391Z,11.70
2017-12-04T15:18:37.537Z,11.70
2017-12-04T15:21:05.628Z,11.70
2017-12-04T15:23:33.758Z,11.70
2017-12-04T15:26:02.662Z,11.60
2017-12-04T15:28:30.806Z,11.60
2017-12-04T15:30:58.909Z,11.50
2017-12-04T15:33:27.020Z,11.50
2017-12-04T15:35:55.127Z,11.40
2017-12-04T15:38:23.214Z,11.40
2017-12-04T15:40:52.055Z,11.30
2017-12-04T15:43:20.169Z,11.30
2017-12-04T15:45:49.001Z,11.10
2017-12-04T15:48:17.123Z,11.10
2017-12-04T15:50:45.193Z,11.00
2017-12-04T15:53:13.271Z,11.00
2017-12-04T15:55:42.169Z,10.80
2017-12-04T15:58:11.030Z,10.80
2017-12-04T16:00:39.129Z,10.80
2017-12-04T16:03:08.061Z,10.70
2017-12-04T16:05:36.141Z,10.60
2017-12-04T16:08:04.290Z,10.60
2017-12-04T16:10:32.369Z,10.50
2017-12-04T16:13:00.363Z,10.50
2017-12-04T16:15:28.425Z,10.40
2017-12-04T16:17:56.478Z,10.40
2017-12-04T16:20:24.514Z,10.30
2017-12-04T16:22:52.545Z,10.30
2017-12-04T16:25:20.602Z,10.30
2017-12-04T16:27:48.669Z,10.30
2017-12-04T16:30:16.824Z,10.30
2017-12-04T16:32:44.890Z,10.30
2017-12-04T16:35:12.944Z,10.30
2017-12-04T16:37:41.765Z,10.20
2017-12-04T16:40:09.842Z,10.20
2017-12-04T16:42:37.890Z,10.20
2017-12-04T16:45:06.693Z,10.10
2017-12-04T16:47:34.817Z,10.10
2017-12-04T16:50:03.031Z,10.10
2017-12-04T16:52:32.099Z,10.00
2017-12-04T16:55:00.148Z,10.00
2017-12-04T16:57:28.371Z,10.00
2017-12-04T16:59:56.658Z,9.90
2017-12-04T17:02:25.088Z,9.90
2017-12-04T17:04:54.203Z,9.90
2017-12-04T17:07:22.373Z,9.90
2017-12-04T17:09:50.509Z,9.90
2017-12-04T17:12:18.625Z,9.80
2017-12-04T17:14:46.725Z,9.80
2017-12-04T17:17:15.783Z,9.80
2017-12-04T17:19:44.174Z,9.70
2017-12-04T17:22:12.539Z,9.70
2017-12-04T17:24:40.854Z,9.70
2017-12-04T17:27:09.418Z,9.60
2017-12-04T17:29:37.724Z,9.60
2017-12-04T17:32:06.142Z,9.50
2017-12-04T17:34:35.224Z,9.40
2017-12-04T17:37:03.553Z,9.40
2017-12-04T17:39:31.957Z,9.30
2017-12-04T17:42:00.313Z,9.30
2017-12-04T17:44:28.676Z,9.20
2017-12-04T17:46:57.139Z,9.20
2017-12-04T17:49:25.721Z,9.20
2017-12-04T17:51:54.857Z,9.20
2017-12-04T17:54:23.394Z,9.10
2017-12-04T17:56:52.623Z,9.20
2017-12-04T17:59:21.773Z,9.20
2017-12-04T18:01:50.173Z,9.20
2017-12-04T18:04:18.756Z,9.20
2017-12-04T18:06:48.144Z,9.20
2017-12-04T18:09:16.639Z,9.20
2017-12-04T18:11:45.093Z,9.20
2017-12-04T18:14:13.487Z,9.20
2017-12-04T18:16:41.913Z,9.10
2017-12-04T18:19:11.127Z,9.10
2017-12-04T18:21:39.494Z,9.10
2017-12-04T18:24:08.778Z,9.00
2017-12-04T18:26:37.466Z,9.00
2017-12-04T18:29:06.052Z,9.00
2017-12-04T18:31:35.247Z,9.00
2017-12-04T18:34:03.892Z,9.00
2017-12-04T18:36:32.426Z,9.00
2017-12-04T18:39:01.652Z,9.00
2017-12-04T18:41:30.148Z,9.00
2017-12-04T18:43:58.571Z,8.90
2017-12-04T18:46:27.074Z,8.90
2017-12-04T18:48:56.242Z,8.90
2017-12-04T18:51:24.690Z,8.90
2017-12-04T18:53:53.087Z,8.90
2017-12-04T18:56:21.612Z,8.90
2017-12-04T18:58:50.284Z,8.80
2017-12-04T19:01:18.883Z,8.80
2017-12-04T19:03:47.290Z,8.70
2017-12-04T19:06:15.793Z,8.70
2017-12-04T19:08:44.242Z,8.60
2017-12-04T19:11:12.759Z,8.60
2017-12-04T19:13:41.325Z,8.60
2017-12-04T19:16:09.810Z,8.60
2017-12-04T19:18:38.218Z,8.60
2017-12-04T19:21:06.827Z,8.60
2017-12-04T19:23:36.100Z,8.60
2017-12-04T19:26:04.566Z,8.50
2017-12-04T19:28:33.202Z,8.50
2017-12-04T19:31:01.326Z,8.50
2017-12-04T19:33:29.449Z,8.40
2017-12-04T19:35:58.328Z,8.40
2017-12-04T19:38:27.130Z,8.40
2017-12-04T19:40:55.958Z,8.40
2017-12-04T19:43:24.126Z,8.40
2017-12-04T19:45:52.241Z,8.40
2017-12-04T19:48:20.366Z,8.40
2017-12-04T19:50:48.680Z,8.40
2017-12-04T19:53:17.589Z,8.30
2017-12-04T19:55:45.773Z,8.30
2017-12-04T19:58:14.775Z,8.30
2017-12-04T20:00:43.691Z,8.30
2017-12-04T20:03:11.801Z,8.20
2017-12-04T20:05:39.895Z,8.30
2017-12-04T20:08:08.002Z,8.30
2017-12-04T20:10:36.056Z,8.30
2017-12-04T20:13:04.956Z,8.30
2017-12-04T20:15:33.078Z,8.30
2017-12-04T20:18:01.229Z,8.30
2017-12-04T20:20:29.482Z,8.40
2017-12-04T20:22:57.746Z,8.30
2017-12-04T20:25:25.879Z,8.30
2017-12-04T20:27:54.093Z,8.30
2017-12-04T20:30:22.243Z,8.30
2017-12-04T20:32:50.397Z,8.20
2017-12-04T20:35:18.563Z,8.20
2017-12-04T20:37:46.732Z,8.20
2017-12-04T20:40:14.842Z,8.10
2017-12-04T20:42:43.003Z,8.10
2017-12-04T20:45:11.230Z,8.10
2017-12-04T20:47:39.458Z,8.00
2017-12-04T20:50:07.615Z,8.00
2017-12-04T20:52:35.796Z,8.00
2017-12-04T20:55:03.929Z,7.90
2017-12-04T20:57:32.034Z,7.90
2017-12-04T21:00:00.195Z,8.00
2017-12-04T21:02:28.324Z,7.90
2017-12-04T21:04:57.225Z,8.00
2017-12-04T21:07:25.517Z,8.00
2017-12-04T21:10:05.446Z,8.00
2017-12-04T21:12:34.375Z,7.80
2017-12-04T21:15:14.212Z,7.80
2017-12-04T21:17:42.330Z,7.80
2017-12-04T21:20:10.387Z,7.70
2017-12-04T21:22:38.395Z,7.70
2017-12-04T21:25:07.197Z,7.60
2017-12-04T21:27:36.333Z,7.60
2017-12-04T21:30:04.499Z,7.50
2017-12-04T21:32:32.583Z,7.50
2017-12-04T21:35:00.658Z,7.50
2017-12-04T21:37:28.764Z,7.40
2017-12-04T21:39:56.845Z,7.40
2017-12-04T21:42:25.694Z,7.30
2017-12-04T21:44:53.797Z,7.30
2017-12-04T21:47:21.911Z,7.30
2017-12-04T21:49:49.996Z,7.20
2017-12-04T21:52:18.085Z,7.20
2017-12-04T21:54:46.171Z,7.10
2017-12-04T21:57:14.281Z,7.10
2017-12-04T21:59:43.142Z,7.00
2017-12-04T22:02:11.258Z,7.00
2017-12-04T22:04:39.413Z,7.00
2017-12-04T22:07:08.282Z,6.90
2017-12-04T22:09:36.412Z,6.90
2017-12-04T22:12:04.510Z,6.90
2017-12-04T22:14:32.529Z,6.90
2017-12-04T22:17:01.222Z,6.80
2017-12-04T22:19:29.340Z,6.80
2017-12-04T22:21:57.448Z,6.70
2017-12-04T22:24:26.298Z,6.70
2017-12-04T22:26:54.425Z,6.70
2017-12-04T22:29:22.506Z,6.70
2017-12-04T22:31:50.604Z,6.70
2017-12-04T22:34:18.715Z,6.70
2017-12-04T22:36:46.794Z,6.70
2017-12-04T22:39:15.654Z,6.60
2017-12-04T22:41:43.761Z,6.60
2017-12-04T22:44:12.617Z,6.60
2017-12-04T22:46:40.813Z,6.50
2017-12-04T22:49:08.925Z,6.50
2017-12-04T22:51:37.353Z,6.50
2017-12-04T22:54:05.507Z,6.40
2017-12-04T22:56:33.597Z,6.40
2017-12-04T22:59:01.765Z,6.40
2017-12-04T23:01:29.891Z,6.40
2017-12-04T23:03:57.981Z,6.40
2017-12-04T23:06:26.105Z,6.40
2017-12-04T23:08:54.206Z,6.40
2017-12-04T23:11:22.328Z,6.40
2017-12-04T23:13:50.494Z,6.40
2017-12-04T23:16:18.644Z,6.40
2017-12-04T23:18:46.813Z,6.40
2017-12-04T23:21:15.034Z,6.30
2017-12-04T23:23:43.167Z,6.30
2017-12-04T23:26:11.286Z,6.30
2017-12-04T23:28:39.392Z,6.30
2017-12-04T23:31:07.485Z,6.30
2017-12-04T23:33:35.661Z,6.30
2017-12-04T23:36:03.800Z,6.30
2017-12-04T23:38:32.666Z,6.30
2017-12-04T23:41:00.725Z,6.20
2017-12-04T23:43:28.738Z,6.30
2017-12-04T23:45:57.480Z,6.30
2017-12-04T23:48:25.518Z,6.20
2017-12-04T23:50:53.614Z,6.30
2017-12-04T23:53:21.689Z,6.30
2017-12-04T23:55:49.703Z,6.20
2017-12-04T23:58:18.569Z,6.30
